Airfield :
LOGIN :

Register | Disclaimer

   EN    FR    IT 

 










Legend :    VFR   Marginal VFR   IFR   Intensive IFR   Very Intensive IFR
Visi :
Ceiling :
>= 8 km
>= 3000ft
5 to 8 km
1000 to 3000 ft
1500m to 5 km
500 to 1000 ft
800 to 1500m
200 to 500 ft
< 800m
< 200 ft
Symbols :   Thunderstorms  Fog  Heavy snow  Heavy precipitations  Wind > 20 kt
SIGMETs :     Misc.  Thunderstorms  Icing  Turbulence  Mountain Waves  Volcanic Ashes







- Airport Elevation : 20 ft


EBFN - Koksijde

CURRENT METAR :
  • 281225Z 25018G29KT 9999 SCT034 SCT060 20/12 Q1012 BLU BLU TEMPO WHT

EXPIRED METARs :
  • 281155Z 23020KT 9999 FEW031 SCT060 20/12 Q1012 BLU BLU TEMPO WHT
  • 281125Z 24017KT 9999 SCT031 BKN060 20/11 Q1012 RERA BLU BLU TEMPO WHT
  • 281055Z 24016KT 9999 SCT031 BKN060 19/12 Q1012 RERA BLU BLU TEMPO WHT
  • 281025Z 24017KT 9999 SCT031 BKN060 18/12 Q1012 BLU BLU TEMPO WHT
  • 280955Z 24016KT 9999 SCT028 BKN090 19/11 Q1011 BLU BLU TEMPO WHT

TAF TAF EBFN
Valid from the 28 at 10:00 until the 28 at 19:00 UTC


280841Z 2810/2819 24015G30KT 9999 SCT025 BKN090
TEMPO 2810/2819 6000 -SHRA FEW015 SCT020 BKN040
PROB30
TEMPO 2812/2819 3500 SHRA FEW015 BKN020
No reported NOTAMs for that airfield.



MET'MAP, your aeronautical weather chart ! - Copyright ORBIFLY December 2007 - Disclaimer

ORBIFLY MET'MAP TEAM :

Programming & Development : Alexandra Zaïnal
Concept & Development : Baudouin d'Aumeries
Co-Development & Prog : Marc-Olivier Méhu
Technical & hardware support : Manuel Goepfert

Contact : metmap@orbifly.com




SOURCES & CREDITS :

   NOAA